createdAt,value
2023-04-27T00:00:40.904Z,7.53
2023-04-27T00:03:08.276Z,7.88
2023-04-27T00:05:35.453Z,7.57
2023-04-27T00:08:02.327Z,7.70
2023-04-27T00:10:29.020Z,7.40
2023-04-27T00:12:55.720Z,7.68
2023-04-27T00:15:22.456Z,7.50
2023-04-27T00:17:49.219Z,7.78
2023-04-27T00:20:15.952Z,8.20
2023-04-27T00:22:42.700Z,8.43
2023-04-27T00:25:09.375Z,7.93
2023-04-27T00:27:36.097Z,8.52
2023-04-27T00:30:03.051Z,7.85
2023-04-27T00:32:29.805Z,9.00
2023-04-27T00:34:56.496Z,8.43
2023-04-27T00:37:23.214Z,8.07
2023-04-27T00:39:49.930Z,8.25
2023-04-27T00:42:19.621Z,7.82
2023-04-27T00:44:50.083Z,8.57
2023-04-27T00:47:17.421Z,8.30
2023-04-27T00:49:44.142Z,8.88
2023-04-27T00:52:11.245Z,8.80
2023-04-27T00:54:37.969Z,8.57
2023-04-27T00:57:04.819Z,8.55
2023-04-27T00:59:31.553Z,8.70
2023-04-27T01:01:58.344Z,8.00
2023-04-27T01:04:25.191Z,8.48
2023-04-27T01:06:52.325Z,9.10
2023-04-27T01:09:20.133Z,8.35
2023-04-27T01:11:49.787Z,7.88
2023-04-27T01:14:17.320Z,8.30
2023-04-27T01:16:44.515Z,7.72
2023-04-27T01:19:11.501Z,8.45
2023-04-27T01:21:38.350Z,8.40
2023-04-27T01:24:05.137Z,8.82
2023-04-27T01:26:31.882Z,8.38
2023-04-27T01:28:58.629Z,9.02
2023-04-27T01:31:27.292Z,7.95
2023-04-27T01:33:54.096Z,7.68
2023-04-27T01:36:20.982Z,8.70
2023-04-27T01:38:48.868Z,8.30
2023-04-27T01:41:15.538Z,9.15
2023-04-27T01:43:43.798Z,9.40
2023-04-27T01:46:10.649Z,8.90
2023-04-27T01:48:37.370Z,8.93
2023-04-27T01:51:04.208Z,8.68
2023-04-27T01:53:31.155Z,9.20
2023-04-27T01:55:59.598Z,9.73
2023-04-27T01:58:26.490Z,9.63
2023-04-27T02:00:53.792Z,9.48
2023-04-27T02:03:20.612Z,10.50
2023-04-27T02:05:50.446Z,9.80
2023-04-27T02:08:17.162Z,10.55
2023-04-27T02:10:44.908Z,10.48
2023-04-27T02:13:11.657Z,11.13
2023-04-27T02:15:38.370Z,11.75
2023-04-27T02:18:05.195Z,11.30
2023-04-27T02:20:32.024Z,11.32
2023-04-27T02:23:01.208Z,12.48
2023-04-27T02:25:28.062Z,12.15
2023-04-27T02:27:55.421Z,12.10
2023-04-27T02:30:22.840Z,12.13
2023-04-27T02:32:50.227Z,13.80
2023-04-27T02:35:17.017Z,11.93
2023-04-27T02:37:43.812Z,14.55
2023-04-27T02:40:10.571Z,13.38
2023-04-27T02:42:39.102Z,12.88
2023-04-27T02:45:06.063Z,13.80
2023-04-27T02:47:32.838Z,13.27
2023-04-27T02:49:59.594Z,13.88
2023-04-27T02:52:26.495Z,13.65
2023-04-27T02:54:53.172Z,13.88
2023-04-27T02:57:19.935Z,14.32
2023-04-27T02:59:46.708Z,14.30
2023-04-27T03:02:13.561Z,14.52
2023-04-27T03:04:40.446Z,14.20
2023-04-27T03:07:07.202Z,15.55
2023-04-27T03:09:33.909Z,14.40
2023-04-27T03:12:00.704Z,14.50
2023-04-27T03:14:27.413Z,14.82
2023-04-27T03:16:56.178Z,14.57
2023-04-27T03:19:23.127Z,14.43
2023-04-27T03:21:50.767Z,15.25
2023-04-27T03:24:17.444Z,16.02
2023-04-27T03:26:44.167Z,15.43
2023-04-27T03:29:11.040Z,15.05
2023-04-27T03:31:37.865Z,14.90
2023-04-27T03:34:04.634Z,15.30
2023-04-27T03:36:32.191Z,15.65
2023-04-27T03:38:58.873Z,15.82
2023-04-27T03:41:25.719Z,15.80
2023-04-27T03:43:53.519Z,15.02
2023-04-27T03:46:20.476Z,15.55
2023-04-27T03:48:47.442Z,15.60
2023-04-27T03:51:15.109Z,15.95
2023-04-27T03:53:44.104Z,16.08
2023-04-27T03:56:10.847Z,16.20
2023-04-27T03:58:38.185Z,16.70
2023-04-27T04:01:30.980Z,16.25
2023-04-27T04:03:58.311Z,16.35
2023-04-27T04:06:25.108Z,17.15
2023-04-27T04:08:51.839Z,18.10
2023-04-27T04:11:18.608Z,18.05
2023-04-27T04:13:45.479Z,18.13
2023-04-27T04:16:13.821Z,18.60
2023-04-27T04:18:40.963Z,18.70
2023-04-27T04:21:08.221Z,18.77
2023-04-27T04:23:37.577Z,18.77
2023-04-27T04:26:04.278Z,18.90
2023-04-27T04:28:34.473Z,19.42
2023-04-27T04:31:01.263Z,19.35
2023-04-27T04:33:28.184Z,20.23
2023-04-27T04:35:55.933Z,19.95
2023-04-27T04:38:23.841Z,19.58
2023-04-27T04:40:52.980Z,20.42
2023-04-27T04:43:19.807Z,20.67
2023-04-27T04:45:47.555Z,20.48
2023-04-27T04:48:14.377Z,21.02
2023-04-27T04:50:42.190Z,21.05
2023-04-27T04:53:08.959Z,20.85
2023-04-27T04:55:35.850Z,21.73
2023-04-27T04:58:02.860Z,21.52
2023-04-27T05:00:29.771Z,21.63
2023-04-27T05:02:56.547Z,22.17
2023-04-27T05:05:23.349Z,20.75
2023-04-27T05:07:50.088Z,21.40
2023-04-27T05:10:16.797Z,22.00
2023-04-27T05:12:45.448Z,22.15
2023-04-27T05:15:12.332Z,21.40
2023-04-27T05:17:39.083Z,23.70
2023-04-27T05:20:06.387Z,21.25
2023-04-27T05:22:33.121Z,21.45
2023-04-27T05:24:59.919Z,20.30
2023-04-27T05:27:26.582Z,20.52
2023-04-27T05:29:53.371Z,19.38
2023-04-27T05:32:20.073Z,21.70
2023-04-27T05:34:49.233Z,22.63
2023-04-27T05:37:16.389Z,23.95
2023-04-27T05:39:43.182Z,23.73
2023-04-27T05:42:09.855Z,24.85
2023-04-27T05:44:36.653Z,24.63
2023-04-27T05:47:03.366Z,24.60
2023-04-27T05:49:30.124Z,23.80
2023-04-27T05:51:58.984Z,24.63
2023-04-27T05:54:26.051Z,23.95
2023-04-27T05:56:52.911Z,25.10
2023-04-27T05:59:19.710Z,25.05
2023-04-27T06:01:47.568Z,24.73
2023-04-27T06:04:14.465Z,25.70
2023-04-27T06:06:41.330Z,25.58
2023-04-27T06:09:08.386Z,26.67
2023-04-27T06:11:35.120Z,23.92
2023-04-27T06:14:01.892Z,24.45
2023-04-27T06:16:28.711Z,23.20
2023-04-27T06:18:55.564Z,25.30
2023-04-27T06:21:22.246Z,23.58
2023-04-27T06:23:48.939Z,23.98
2023-04-27T06:26:15.706Z,22.50
2023-04-27T06:28:42.477Z,22.30
2023-04-27T06:31:09.242Z,21.48
2023-04-27T06:33:36.178Z,22.75
2023-04-27T06:36:02.970Z,21.77
2023-04-27T06:38:29.734Z,22.63
2023-04-27T06:40:57.016Z,21.63
2023-04-27T06:43:23.938Z,22.85
2023-04-27T06:45:50.651Z,19.98
2023-04-27T06:48:17.450Z,21.20
2023-04-27T06:50:44.220Z,21.92
2023-04-27T06:53:10.973Z,20.52
2023-04-27T06:55:37.674Z,20.45
2023-04-27T06:58:04.516Z,20.98
2023-04-27T07:00:31.274Z,20.58
2023-04-27T07:02:58.181Z,23.48
2023-04-27T07:05:24.952Z,19.92
2023-04-27T07:07:51.660Z,19.80
2023-04-27T07:10:18.401Z,19.10
2023-04-27T07:12:45.140Z,18.90
2023-04-27T07:15:11.863Z,18.05
2023-04-27T07:17:38.613Z,18.55
2023-04-27T07:20:06.237Z,17.88
2023-04-27T07:22:33.126Z,19.88
2023-04-27T07:24:59.821Z,18.75
2023-04-27T07:27:26.713Z,17.83
2023-04-27T07:29:53.484Z,17.33
2023-04-27T07:32:21.255Z,15.68
2023-04-27T07:34:53.660Z,16.10
2023-04-27T07:37:21.289Z,15.68
2023-04-27T07:39:48.740Z,14.88
2023-04-27T07:42:15.457Z,15.35
2023-04-27T07:44:42.657Z,15.00
2023-04-27T07:47:09.562Z,16.23
2023-04-27T07:49:36.261Z,15.55
2023-04-27T07:52:03.168Z,15.20
2023-04-27T07:54:29.932Z,14.70
2023-04-27T07:56:57.410Z,14.25
2023-04-27T07:59:24.125Z,14.23
2023-04-27T08:01:51.210Z,14.77
2023-04-27T08:04:18.285Z,13.75
2023-04-27T08:06:46.648Z,12.80
2023-04-27T08:09:14.155Z,13.90
2023-04-27T08:11:41.142Z,12.52
2023-04-27T08:14:13.480Z,12.63
2023-04-27T08:16:40.234Z,11.85
2023-04-27T08:19:07.007Z,11.63
2023-04-27T08:21:33.754Z,11.82
2023-04-27T08:24:00.588Z,12.27
2023-04-27T08:26:27.330Z,11.13
2023-04-27T08:28:54.135Z,11.70
2023-04-27T08:31:22.139Z,11.55
2023-04-27T08:33:48.893Z,11.18
2023-04-27T08:36:15.629Z,11.30
2023-04-27T08:38:42.414Z,11.40
2023-04-27T08:41:20.913Z,11.02
2023-04-27T08:43:52.064Z,10.73
2023-04-27T08:46:19.262Z,10.93
2023-04-27T08:48:46.104Z,10.65
2023-04-27T08:51:12.827Z,10.85
2023-04-27T08:53:39.487Z,10.95
2023-04-27T08:56:06.531Z,10.20
2023-04-27T08:58:33.274Z,10.07
2023-04-27T09:01:00.047Z,10.35
2023-04-27T09:03:26.951Z,9.45
2023-04-27T09:06:04.701Z,9.95
2023-04-27T09:08:32.661Z,10.45
2023-04-27T09:10:59.380Z,10.40
2023-04-27T09:13:26.088Z,10.27
2023-04-27T09:15:52.911Z,9.88
2023-04-27T09:18:19.691Z,9.68
2023-04-27T09:20:46.447Z,9.82
2023-04-27T09:23:13.225Z,9.57
2023-04-27T09:25:39.906Z,10.13
2023-04-27T09:28:06.602Z,10.45
2023-04-27T09:30:33.391Z,10.25
2023-04-27T09:33:01.587Z,11.57
2023-04-27T09:35:29.246Z,9.30
2023-04-27T09:37:56.044Z,10.10
2023-04-27T09:40:29.810Z,10.30
2023-04-27T09:42:57.088Z,10.00
2023-04-27T09:45:23.900Z,9.88
2023-04-27T09:47:50.822Z,9.00
2023-04-27T09:50:17.565Z,9.18
2023-04-27T09:52:44.230Z,9.32
2023-04-27T09:55:11.588Z,9.60
2023-04-27T09:57:38.400Z,8.90
2023-04-27T10:00:08.089Z,9.30
2023-04-27T10:02:46.281Z,8.27
2023-04-27T10:05:19.274Z,8.68
2023-04-27T10:07:46.332Z,7.45
2023-04-27T10:10:13.076Z,8.05
2023-04-27T10:12:39.748Z,7.50
2023-04-27T10:15:06.785Z,7.13
2023-04-27T10:17:33.596Z,6.93
2023-04-27T10:20:00.435Z,7.20
2023-04-27T10:22:27.112Z,6.93
2023-04-27T10:24:53.901Z,6.78
2023-04-27T10:27:22.661Z,6.93
2023-04-27T10:29:49.821Z,6.68
2023-04-27T10:32:16.504Z,7.03
2023-04-27T10:34:45.321Z,6.47
2023-04-27T10:37:12.549Z,7.05
2023-04-27T10:39:47.994Z,8.50
2023-04-27T10:42:16.295Z,5.95
2023-04-27T10:44:42.977Z,6.50
2023-04-27T10:47:09.727Z,10.32
2023-04-27T10:49:36.403Z,7.47
2023-04-27T10:52:04.958Z,6.07
2023-04-27T10:54:31.616Z,6.00
2023-04-27T10:56:58.389Z,6.07
2023-04-27T10:59:25.059Z,7.63
2023-04-27T11:01:52.051Z,6.40
2023-04-27T11:04:19.610Z,5.95
2023-04-27T11:06:47.047Z,5.95
2023-04-27T11:09:13.759Z,6.68
2023-04-27T11:11:40.971Z,5.30
2023-04-27T11:14:08.193Z,5.78
2023-04-27T11:16:35.060Z,5.50
2023-04-27T11:19:02.288Z,5.80
2023-04-27T11:21:29.071Z,5.93
2023-04-27T11:23:56.917Z,5.70
2023-04-27T11:26:26.931Z,4.82
2023-04-27T11:28:53.616Z,4.55
2023-04-27T11:31:20.813Z,5.07
2023-04-27T11:33:47.510Z,4.70
2023-04-27T11:36:14.243Z,5.03
2023-04-27T11:38:40.972Z,5.07
2023-04-27T11:41:07.904Z,5.03
2023-04-27T11:43:34.800Z,4.72
2023-04-27T11:46:01.722Z,5.30
2023-04-27T11:48:28.945Z,6.68
2023-04-27T11:50:55.820Z,5.05
2023-04-27T11:53:22.499Z,5.07
2023-04-27T11:55:49.268Z,5.07
2023-04-27T11:58:16.075Z,4.50
2023-04-27T12:00:42.861Z,6.43
2023-04-27T12:03:09.901Z,4.75
2023-04-27T12:05:36.890Z,5.35
2023-04-27T12:08:04.045Z,6.10
2023-04-27T12:10:31.159Z,6.15
2023-04-27T12:12:57.857Z,6.75
2023-04-27T12:15:24.653Z,10.77
2023-04-27T12:17:51.425Z,10.73
2023-04-27T12:20:18.523Z,5.97
2023-04-27T12:22:45.283Z,12.10
2023-04-27T12:25:12.064Z,4.75
2023-04-27T12:27:38.855Z,4.90
2023-04-27T12:30:05.590Z,14.30
2023-04-27T12:32:32.281Z,5.13
2023-04-27T12:34:59.067Z,4.97
2023-04-27T12:37:26.935Z,5.18
2023-04-27T12:39:53.927Z,5.47
2023-04-27T12:42:24.122Z,4.78
2023-04-27T12:44:51.309Z,4.60
2023-04-27T12:47:34.549Z,5.32
2023-04-27T12:50:05.679Z,4.22
2023-04-27T12:52:32.412Z,5.00
2023-04-27T12:54:59.582Z,5.72
2023-04-27T12:57:26.726Z,6.00
2023-04-27T12:59:53.650Z,5.32
2023-04-27T13:02:20.358Z,6.38
2023-04-27T13:04:47.332Z,4.53
2023-04-27T13:07:14.147Z,5.75
2023-04-27T13:09:41.831Z,5.22
2023-04-27T13:12:08.572Z,5.53
2023-04-27T13:14:35.317Z,5.18
2023-04-27T13:17:02.639Z,5.88
2023-04-27T13:19:29.388Z,6.28
2023-04-27T13:21:56.594Z,5.68
2023-04-27T13:24:24.651Z,5.50
2023-04-27T13:26:51.412Z,5.60
2023-04-27T13:29:18.194Z,6.22
2023-04-27T13:31:44.985Z,5.82
2023-04-27T13:34:12.265Z,6.22
2023-04-27T13:36:39.080Z,6.13
2023-04-27T13:39:06.504Z,6.00
2023-04-27T13:41:33.320Z,5.40
2023-04-27T13:44:00.021Z,5.68
2023-04-27T13:46:27.088Z,6.25
2023-04-27T13:48:53.940Z,6.75
2023-04-27T13:51:20.666Z,6.60
2023-04-27T13:53:47.445Z,7.00
2023-04-27T13:56:14.202Z,6.00
2023-04-27T13:58:41.699Z,6.57
2023-04-27T14:01:11.406Z,7.20
2023-04-27T14:03:39.782Z,8.85
2023-04-27T14:06:07.882Z,6.85
2023-04-27T14:08:34.641Z,7.60
2023-04-27T14:11:01.601Z,7.03
2023-04-27T14:13:28.373Z,6.47
2023-04-27T14:15:55.108Z,6.60
2023-04-27T14:18:25.488Z,6.65
2023-04-27T14:20:58.598Z,6.65
2023-04-27T14:23:25.461Z,7.63
2023-04-27T14:25:52.202Z,6.70
2023-04-27T14:28:18.947Z,7.15
2023-04-27T14:30:45.692Z,8.00
2023-04-27T14:33:12.483Z,9.23
2023-04-27T14:35:39.418Z,7.88
2023-04-27T14:38:06.520Z,7.68
2023-04-27T14:40:33.816Z,7.45
2023-04-27T14:43:00.545Z,7.82
2023-04-27T14:45:33.533Z,8.40
2023-04-27T14:48:06.959Z,8.98
2023-04-27T14:50:33.724Z,8.60
2023-04-27T14:53:00.663Z,8.63
2023-04-27T14:55:27.724Z,8.15
2023-04-27T14:57:54.460Z,8.05
2023-04-27T15:00:21.152Z,9.63
2023-04-27T15:02:48.043Z,8.82
2023-04-27T15:05:15.106Z,8.43
2023-04-27T15:07:42.749Z,7.82
2023-04-27T15:10:09.488Z,7.82
2023-04-27T15:12:36.635Z,8.55
2023-04-27T15:15:03.780Z,8.75
2023-04-27T15:17:30.661Z,8.15
2023-04-27T15:19:57.463Z,8.45
2023-04-27T15:22:24.271Z,8.38
2023-04-27T15:24:51.055Z,8.18
2023-04-27T15:27:17.922Z,8.68
2023-04-27T15:29:44.586Z,7.85
2023-04-27T15:32:11.806Z,9.10
2023-04-27T15:34:38.806Z,8.77
2023-04-27T15:37:05.518Z,9.23
2023-04-27T15:39:32.298Z,9.18
2023-04-27T15:41:59.904Z,9.75
2023-04-27T15:44:27.024Z,9.27
2023-04-27T15:46:53.827Z,9.18
2023-04-27T15:49:20.553Z,9.13
2023-04-27T15:51:47.237Z,10.10
2023-04-27T15:54:13.931Z,9.90
2023-04-27T15:56:40.720Z,10.45
2023-04-27T15:59:08.081Z,11.02
2023-04-27T16:01:34.846Z,10.77
2023-04-27T16:04:01.683Z,10.85
2023-04-27T16:06:28.587Z,11.02
2023-04-27T16:08:55.487Z,10.80
2023-04-27T16:11:22.194Z,11.57
2023-04-27T16:13:48.898Z,10.93
2023-04-27T16:16:15.635Z,11.15
2023-04-27T16:18:42.558Z,11.18
2023-04-27T16:21:09.249Z,11.77
2023-04-27T16:23:36.065Z,11.38
2023-04-27T16:26:02.782Z,11.10
2023-04-27T16:28:29.478Z,11.88
2023-04-27T16:30:56.283Z,11.75
2023-04-27T16:33:23.096Z,12.77
2023-04-27T16:35:49.988Z,12.80
2023-04-27T16:38:16.744Z,12.25
2023-04-27T16:40:43.630Z,13.48
2023-04-27T16:43:10.314Z,13.15
2023-04-27T16:45:38.678Z,14.05
2023-04-27T16:48:05.800Z,13.77
2023-04-27T16:50:33.455Z,13.70
2023-04-27T16:53:00.217Z,13.93
2023-04-27T16:55:28.493Z,14.18
2023-04-27T16:57:55.276Z,14.63
2023-04-27T17:00:22.269Z,15.07
2023-04-27T17:02:48.999Z,15.20
2023-04-27T17:05:15.979Z,14.30
2023-04-27T17:07:42.708Z,15.10
2023-04-27T17:10:09.539Z,14.98
2023-04-27T17:12:36.247Z,15.25
2023-04-27T17:15:03.058Z,14.90
2023-04-27T17:17:29.739Z,15.60
2023-04-27T17:19:56.952Z,16.02
2023-04-27T17:22:23.648Z,15.32
2023-04-27T17:24:50.384Z,16.08
2023-04-27T17:27:17.154Z,16.27
2023-04-27T17:29:43.981Z,16.50
2023-04-27T17:32:10.844Z,17.20
2023-04-27T17:34:37.633Z,16.80
2023-04-27T17:37:04.379Z,15.18
2023-04-27T17:39:31.428Z,15.82
2023-04-27T17:41:58.116Z,18.00
2023-04-27T17:44:24.876Z,17.05
2023-04-27T17:46:51.672Z,17.23
2023-04-27T17:49:18.397Z,17.45
2023-04-27T17:51:45.045Z,16.70
2023-04-27T17:54:12.337Z,18.23
2023-04-27T17:56:39.058Z,18.17
2023-04-27T17:59:05.742Z,17.70
2023-04-27T18:01:32.448Z,17.65
2023-04-27T18:04:02.154Z,17.02
2023-04-27T18:06:32.117Z,17.20
2023-04-27T18:08:58.970Z,18.58
2023-04-27T18:11:26.144Z,17.20
2023-04-27T18:13:52.938Z,17.42
2023-04-27T18:16:19.756Z,17.50
2023-04-27T18:18:46.556Z,18.15
2023-04-27T18:21:13.322Z,17.63
2023-04-27T18:23:41.366Z,17.55
2023-04-27T18:26:09.806Z,16.98
2023-04-27T18:28:40.165Z,17.65
2023-04-27T18:31:06.988Z,17.25
2023-04-27T18:33:33.721Z,17.45
2023-04-27T18:36:00.715Z,17.92
2023-04-27T18:38:27.577Z,16.67
2023-04-27T18:40:54.231Z,16.73
2023-04-27T18:43:21.064Z,16.05
2023-04-27T18:45:47.786Z,16.48
2023-04-27T18:48:14.516Z,17.25
2023-04-27T18:50:41.269Z,16.25
2023-04-27T18:53:08.046Z,17.67
2023-04-27T18:55:34.707Z,16.65
2023-04-27T18:58:01.541Z,16.85
2023-04-27T19:00:30.192Z,15.30
2023-04-27T19:02:57.089Z,16.02
2023-04-27T19:05:24.140Z,16.27
2023-04-27T19:07:51.403Z,17.15
2023-04-27T19:10:18.110Z,16.45
2023-04-27T19:12:44.919Z,15.85
2023-04-27T19:15:12.069Z,16.50
2023-04-27T19:17:40.265Z,17.10
2023-04-27T19:20:07.179Z,17.63
2023-04-27T19:22:34.956Z,17.00
2023-04-27T19:25:01.680Z,16.65
2023-04-27T19:27:28.603Z,17.75
2023-04-27T19:29:55.426Z,18.90
2023-04-27T19:32:22.241Z,19.08
2023-04-27T19:34:49.418Z,18.52
2023-04-27T19:37:16.227Z,19.58
2023-04-27T19:39:42.943Z,20.58
2023-04-27T19:42:09.707Z,20.33
2023-04-27T19:44:36.539Z,20.75
2023-04-27T19:47:03.276Z,20.73
2023-04-27T19:49:30.011Z,21.83
2023-04-27T19:51:56.771Z,21.58
2023-04-27T19:54:23.450Z,21.60
2023-04-27T19:56:50.229Z,23.00
2023-04-27T19:59:16.971Z,21.45
2023-04-27T20:01:43.803Z,23.02
2023-04-27T20:04:11.162Z,21.80
2023-04-27T20:06:38.055Z,21.52
2023-04-27T20:09:05.203Z,21.75
2023-04-27T20:11:31.934Z,20.27
2023-04-27T20:13:58.598Z,21.17
2023-04-27T20:16:28.493Z,22.13
2023-04-27T20:18:55.576Z,21.45
2023-04-27T20:21:22.474Z,20.98
2023-04-27T20:23:49.180Z,21.38
2023-04-27T20:26:16.022Z,21.88
2023-04-27T20:28:42.738Z,21.52
2023-04-27T20:31:09.608Z,20.52
2023-04-27T20:33:36.452Z,20.48
2023-04-27T20:36:14.107Z,19.90
2023-04-27T20:38:44.381Z,19.35
2023-04-27T20:41:12.469Z,18.58
2023-04-27T20:43:39.968Z,17.42
2023-04-27T20:46:06.676Z,16.85
2023-04-27T20:48:33.498Z,17.55
2023-04-27T20:51:00.761Z,15.45
2023-04-27T20:53:27.483Z,14.18
2023-04-27T20:55:54.277Z,14.98
2023-04-27T20:58:21.008Z,14.63
2023-04-27T21:00:47.716Z,14.27
2023-04-27T21:03:14.605Z,13.63
2023-04-27T21:05:41.564Z,13.70
2023-04-27T21:08:08.345Z,12.57
2023-04-27T21:10:35.549Z,11.63
2023-04-27T21:13:04.087Z,11.85
2023-04-27T21:15:31.035Z,11.88
2023-04-27T21:17:57.877Z,10.98
2023-04-27T21:20:24.651Z,11.75
2023-04-27T21:22:51.424Z,10.73
2023-04-27T21:25:18.123Z,9.68
2023-04-27T21:27:44.862Z,9.18
2023-04-27T21:30:11.556Z,7.60
2023-04-27T21:32:38.393Z,7.65
2023-04-27T21:35:05.141Z,7.28
2023-04-27T21:37:32.216Z,6.82
2023-04-27T21:39:58.943Z,7.30
2023-04-27T21:42:25.842Z,7.03
2023-04-27T21:44:52.576Z,6.28
2023-04-27T21:47:19.332Z,5.95
2023-04-27T21:49:46.020Z,6.13
2023-04-27T21:52:12.808Z,6.68
2023-04-27T21:54:39.552Z,6.28
2023-04-27T21:57:06.302Z,6.70
2023-04-27T21:59:33.054Z,6.78
2023-04-27T22:01:59.910Z,5.68
2023-04-27T22:04:26.766Z,5.72
2023-04-27T22:06:53.692Z,6.00
2023-04-27T22:09:20.349Z,5.35
2023-04-27T22:11:47.084Z,6.05
2023-04-27T22:14:13.905Z,5.15
2023-04-27T22:16:40.816Z,5.43
2023-04-27T22:19:08.186Z,5.80
2023-04-27T22:21:34.937Z,5.90
2023-04-27T22:24:01.627Z,4.88
2023-04-27T22:26:28.585Z,5.60
2023-04-27T22:28:55.312Z,5.57
2023-04-27T22:31:22.335Z,5.43
2023-04-27T22:33:49.062Z,5.38
2023-04-27T22:36:15.875Z,5.72
2023-04-27T22:38:42.582Z,4.63
2023-04-27T22:41:09.299Z,4.88
2023-04-27T22:43:35.986Z,5.18
2023-04-27T22:46:02.706Z,4.78
2023-04-27T22:48:29.386Z,4.70
2023-04-27T22:50:56.120Z,5.07
2023-04-27T22:53:23.260Z,4.40
2023-04-27T22:55:49.942Z,4.57
2023-04-27T22:58:16.632Z,4.60
2023-04-27T23:00:43.458Z,4.53
2023-04-27T23:03:12.066Z,4.38
2023-04-27T23:05:39.002Z,4.70
2023-04-27T23:08:06.807Z,4.38
2023-04-27T23:10:34.830Z,4.82
2023-04-27T23:13:02.068Z,4.50
2023-04-27T23:15:28.866Z,4.00
2023-04-27T23:17:55.614Z,4.10
2023-04-27T23:22:52.127Z,4.28
2023-04-27T23:25:18.798Z,3.58
2023-04-27T23:27:45.577Z,4.00
2023-04-27T23:30:12.350Z,4.10
2023-04-27T23:32:39.150Z,3.80
2023-04-27T23:35:05.859Z,3.90
2023-04-27T23:37:32.699Z,4.15
2023-04-27T23:39:59.412Z,3.80
2023-04-27T23:42:26.158Z,4.10
2023-04-27T23:44:53.200Z,3.80
2023-04-27T23:47:19.958Z,4.07
2023-04-27T23:49:46.663Z,4.50
2023-04-27T23:52:13.358Z,4.50
2023-04-27T23:54:40.090Z,4.22
2023-04-27T23:57:06.933Z,4.22
2023-04-27T23:59:33.653Z,3.97
